sensor_id;sensor_type;location;lat;lon;timestamp;P1;durP1;ratioP1;P2;durP2;ratioP2
34896;SDS011;43407;51.828;-2.298;2023-02-26T00:01:31;9.38;;;3.55;;
34896;SDS011;43407;51.828;-2.298;2023-02-26T00:03:59;7.30;;;3.03;;
34896;SDS011;43407;51.828;-2.298;2023-02-26T00:06:26;7.00;;;3.28;;
34896;SDS011;43407;51.828;-2.298;2023-02-26T00:08:52;9.65;;;3.47;;
34896;SDS011;43407;51.828;-2.298;2023-02-26T00:11:17;6.75;;;2.83;;
34896;SDS011;43407;51.828;-2.298;2023-02-26T00:13:43;8.65;;;3.50;;
34896;SDS011;43407;51.828;-2.298;2023-02-26T00:16:12;10.95;;;3.90;;
34896;SDS011;43407;51.828;-2.298;2023-02-26T00:18:47;4.80;;;2.78;;
34896;SDS011;43407;51.828;-2.298;2023-02-26T00:21:17;7.85;;;2.97;;
34896;SDS011;43407;51.828;-2.298;2023-02-26T00:23:43;7.05;;;2.90;;
34896;SDS011;43407;51.828;-2.298;2023-02-26T00:26:09;7.95;;;3.08;;
34896;SDS011;43407;51.828;-2.298;2023-02-26T00:28:35;6.60;;;2.80;;
34896;SDS011;43407;51.828;-2.298;2023-02-26T00:31:01;7.95;;;3.15;;
34896;SDS011;43407;51.828;-2.298;2023-02-26T00:33:27;8.88;;;3.45;;
34896;SDS011;43407;51.828;-2.298;2023-02-26T00:35:55;7.18;;;3.30;;
34896;SDS011;43407;51.828;-2.298;2023-02-26T00:38:25;6.32;;;3.40;;
34896;SDS011;43407;51.828;-2.298;2023-02-26T00:40:51;7.18;;;3.38;;
34896;SDS011;43407;51.828;-2.298;2023-02-26T00:43:20;7.40;;;3.10;;
34896;SDS011;43407;51.828;-2.298;2023-02-26T00:46:14;7.35;;;2.95;;
34896;SDS011;43407;51.828;-2.298;2023-02-26T00:51:30;5.82;;;2.38;;
34896;SDS011;43407;51.828;-2.298;2023-02-26T00:54:06;8.25;;;2.83;;
34896;SDS011;43407;51.828;-2.298;2023-02-26T00:56:36;5.90;;;3.00;;
34896;SDS011;43407;51.828;-2.298;2023-02-26T00:59:02;9.65;;;3.15;;
34896;SDS011;43407;51.828;-2.298;2023-02-26T01:01:28;6.50;;;3.13;;
34896;SDS011;43407;51.828;-2.298;2023-02-26T01:03:54;10.57;;;3.63;;
34896;SDS011;43407;51.828;-2.298;2023-02-26T01:06:20;8.60;;;3.10;;
34896;SDS011;43407;51.828;-2.298;2023-02-26T01:11:19;6.60;;;2.93;;
34896;SDS011;43407;51.828;-2.298;2023-02-26T01:13:45;6.13;;;3.13;;
34896;SDS011;43407;51.828;-2.298;2023-02-26T01:16:11;6.45;;;2.65;;
34896;SDS011;43407;51.828;-2.298;2023-02-26T01:18:47;5.10;;;2.58;;
34896;SDS011;43407;51.828;-2.298;2023-02-26T01:21:20;5.53;;;2.72;;
34896;SDS011;43407;51.828;-2.298;2023-02-26T01:23:50;5.78;;;2.40;;
34896;SDS011;43407;51.828;-2.298;2023-02-26T01:26:18;8.18;;;3.08;;
34896;SDS011;43407;51.828;-2.298;2023-02-26T01:28:47;7.80;;;3.33;;
34896;SDS011;43407;51.828;-2.298;2023-02-26T01:31:29;7.35;;;2.78;;
34896;SDS011;43407;51.828;-2.298;2023-02-26T01:36:25;8.10;;;2.72;;
34896;SDS011;43407;51.828;-2.298;2023-02-26T01:39:04;6.97;;;2.95;;
34896;SDS011;43407;51.828;-2.298;2023-02-26T01:44:35;6.10;;;2.47;;
34896;SDS011;43407;51.828;-2.298;2023-02-26T01:50:16;7.72;;;2.90;;
34896;SDS011;43407;51.828;-2.298;2023-02-26T01:55:23;5.70;;;2.60;;
34896;SDS011;43407;51.828;-2.298;2023-02-26T01:57:52;6.57;;;2.63;;
34896;SDS011;43407;51.828;-2.298;2023-02-26T02:00:20;7.07;;;2.67;;
34896;SDS011;43407;51.828;-2.298;2023-02-26T02:02:46;7.82;;;2.63;;
34896;SDS011;43407;51.828;-2.298;2023-02-26T02:05:23;6.90;;;2.40;;
34896;SDS011;43407;51.828;-2.298;2023-02-26T02:07:51;9.70;;;2.97;;
34896;SDS011;43407;51.828;-2.298;2023-02-26T02:10:17;7.10;;;2.33;;
34896;SDS011;43407;51.828;-2.298;2023-02-26T02:21:06;6.10;;;2.35;;
34896;SDS011;43407;51.828;-2.298;2023-02-26T02:29:07;7.20;;;2.50;;
34896;SDS011;43407;51.828;-2.298;2023-02-26T02:32:05;4.90;;;2.60;;
34896;SDS011;43407;51.828;-2.298;2023-02-26T02:39:45;4.93;;;2.33;;
34896;SDS011;43407;51.828;-2.298;2023-02-26T02:42:57;9.57;;;2.38;;
34896;SDS011;43407;51.828;-2.298;2023-02-26T02:45:13;6.93;;;2.42;;
34896;SDS011;43407;51.828;-2.298;2023-02-26T02:47:45;6.82;;;2.72;;
34896;SDS011;43407;51.828;-2.298;2023-02-26T02:50:28;8.02;;;2.58;;
34896;SDS011;43407;51.828;-2.298;2023-02-26T02:53:01;6.10;;;2.72;;
34896;SDS011;43407;51.828;-2.298;2023-02-26T02:55:32;5.88;;;2.50;;
34896;SDS011;43407;51.828;-2.298;2023-02-26T02:58:09;6.85;;;2.50;;
34896;SDS011;43407;51.828;-2.298;2023-02-26T03:00:38;5.90;;;2.90;;
34896;SDS011;43407;51.828;-2.298;2023-02-26T03:03:12;5.88;;;2.40;;
34896;SDS011;43407;51.828;-2.298;2023-02-26T03:05:40;6.10;;;2.53;;
34896;SDS011;43407;51.828;-2.298;2023-02-26T03:08:11;4.72;;;2.50;;
34896;SDS011;43407;51.828;-2.298;2023-02-26T03:10:38;2.95;;;1.92;;
34896;SDS011;43407;51.828;-2.298;2023-02-26T03:13:04;5.10;;;2.60;;
34896;SDS011;43407;51.828;-2.298;2023-02-26T03:15:43;5.18;;;2.08;;
34896;SDS011;43407;51.828;-2.298;2023-02-26T03:18:28;7.90;;;2.67;;
34896;SDS011;43407;51.828;-2.298;2023-02-26T03:23:33;7.93;;;2.58;;
34896;SDS011;43407;51.828;-2.298;2023-02-26T03:26:07;8.35;;;2.80;;
34896;SDS011;43407;51.828;-2.298;2023-02-26T03:28:50;9.05;;;2.90;;
34896;SDS011;43407;51.828;-2.298;2023-02-26T03:31:28;11.45;;;3.05;;
34896;SDS011;43407;51.828;-2.298;2023-02-26T03:39:21;8.90;;;2.85;;
34896;SDS011;43407;51.828;-2.298;2023-02-26T03:41:57;4.60;;;2.50;;
34896;SDS011;43407;51.828;-2.298;2023-02-26T03:44:31;5.47;;;3.08;;
34896;SDS011;43407;51.828;-2.298;2023-02-26T03:47:00;8.57;;;3.15;;
34896;SDS011;43407;51.828;-2.298;2023-02-26T03:49:34;5.10;;;2.70;;
34896;SDS011;43407;51.828;-2.298;2023-02-26T03:52:07;4.70;;;2.50;;
34896;SDS011;43407;51.828;-2.298;2023-02-26T03:54:38;5.90;;;2.70;;
34896;SDS011;43407;51.828;-2.298;2023-02-26T03:57:06;5.20;;;2.67;;
34896;SDS011;43407;51.828;-2.298;2023-02-26T03:59:32;6.95;;;2.85;;
34896;SDS011;43407;51.828;-2.298;2023-02-26T04:02:03;8.48;;;2.95;;
34896;SDS011;43407;51.828;-2.298;2023-02-26T04:04:41;8.10;;;2.75;;
34896;SDS011;43407;51.828;-2.298;2023-02-26T04:07:09;8.63;;;2.90;;
34896;SDS011;43407;51.828;-2.298;2023-02-26T04:09:36;6.32;;;3.45;;
34896;SDS011;43407;51.828;-2.298;2023-02-26T04:12:01;8.20;;;3.38;;
34896;SDS011;43407;51.828;-2.298;2023-02-26T04:14:27;7.28;;;2.55;;
34896;SDS011;43407;51.828;-2.298;2023-02-26T04:16:52;5.55;;;2.70;;
34896;SDS011;43407;51.828;-2.298;2023-02-26T04:19:18;5.95;;;2.80;;
34896;SDS011;43407;51.828;-2.298;2023-02-26T04:21:43;4.53;;;2.88;;
34896;SDS011;43407;51.828;-2.298;2023-02-26T04:24:09;8.57;;;2.80;;
34896;SDS011;43407;51.828;-2.298;2023-02-26T04:26:35;6.57;;;2.70;;
34896;SDS011;43407;51.828;-2.298;2023-02-26T04:29:00;8.50;;;3.20;;
34896;SDS011;43407;51.828;-2.298;2023-02-26T04:31:26;7.32;;;2.90;;
34896;SDS011;43407;51.828;-2.298;2023-02-26T04:33:51;6.25;;;2.88;;
34896;SDS011;43407;51.828;-2.298;2023-02-26T04:36:17;9.60;;;3.25;;
34896;SDS011;43407;51.828;-2.298;2023-02-26T04:38:42;4.88;;;2.53;;
34896;SDS011;43407;51.828;-2.298;2023-02-26T04:41:08;4.75;;;2.50;;
34896;SDS011;43407;51.828;-2.298;2023-02-26T04:43:34;8.10;;;2.58;;
34896;SDS011;43407;51.828;-2.298;2023-02-26T04:45:59;5.32;;;2.47;;
34896;SDS011;43407;51.828;-2.298;2023-02-26T04:48:25;7.05;;;2.80;;
34896;SDS011;43407;51.828;-2.298;2023-02-26T04:50:50;6.22;;;2.33;;
34896;SDS011;43407;51.828;-2.298;2023-02-26T04:53:16;7.03;;;2.90;;
34896;SDS011;43407;51.828;-2.298;2023-02-26T04:55:41;4.43;;;2.45;;
34896;SDS011;43407;51.828;-2.298;2023-02-26T04:58:07;4.35;;;2.22;;
34896;SDS011;43407;51.828;-2.298;2023-02-26T05:00:32;6.40;;;2.30;;
34896;SDS011;43407;51.828;-2.298;2023-02-26T05:02:58;4.90;;;2.40;;
34896;SDS011;43407;51.828;-2.298;2023-02-26T05:05:24;4.38;;;2.50;;
34896;SDS011;43407;51.828;-2.298;2023-02-26T05:07:50;5.75;;;2.35;;
34896;SDS011;43407;51.828;-2.298;2023-02-26T05:10:19;6.18;;;2.60;;
34896;SDS011;43407;51.828;-2.298;2023-02-26T05:12:45;6.80;;;2.33;;
34896;SDS011;43407;51.828;-2.298;2023-02-26T05:15:10;3.38;;;2.20;;
34896;SDS011;43407;51.828;-2.298;2023-02-26T05:17:36;6.00;;;2.45;;
34896;SDS011;43407;51.828;-2.298;2023-02-26T05:20:01;2.75;;;1.90;;
34896;SDS011;43407;51.828;-2.298;2023-02-26T05:22:28;3.42;;;1.98;;
34896;SDS011;43407;51.828;-2.298;2023-02-26T05:24:53;3.42;;;2.05;;
34896;SDS011;43407;51.828;-2.298;2023-02-26T05:27:19;6.57;;;2.08;;
34896;SDS011;43407;51.828;-2.298;2023-02-26T05:29:44;6.03;;;2.28;;
34896;SDS011;43407;51.828;-2.298;2023-02-26T05:32:10;4.65;;;2.50;;
34896;SDS011;43407;51.828;-2.298;2023-02-26T05:34:35;4.85;;;2.22;;
34896;SDS011;43407;51.828;-2.298;2023-02-26T05:37:01;7.38;;;2.45;;
34896;SDS011;43407;51.828;-2.298;2023-02-26T05:39:27;7.07;;;2.35;;
34896;SDS011;43407;51.828;-2.298;2023-02-26T05:41:53;4.60;;;2.35;;
34896;SDS011;43407;51.828;-2.298;2023-02-26T05:44:19;6.10;;;2.65;;
34896;SDS011;43407;51.828;-2.298;2023-02-26T05:46:46;4.70;;;2.20;;
34896;SDS011;43407;51.828;-2.298;2023-02-26T05:49:11;7.47;;;2.60;;
34896;SDS011;43407;51.828;-2.298;2023-02-26T05:51:37;3.45;;;2.33;;
34896;SDS011;43407;51.828;-2.298;2023-02-26T05:54:03;2.53;;;2.13;;
34896;SDS011;43407;51.828;-2.298;2023-02-26T05:56:29;5.03;;;2.50;;
34896;SDS011;43407;51.828;-2.298;2023-02-26T05:58:55;4.75;;;2.25;;
34896;SDS011;43407;51.828;-2.298;2023-02-26T06:01:20;4.63;;;2.30;;
34896;SDS011;43407;51.828;-2.298;2023-02-26T06:03:46;5.72;;;2.50;;
34896;SDS011;43407;51.828;-2.298;2023-02-26T06:06:12;4.95;;;2.50;;
34896;SDS011;43407;51.828;-2.298;2023-02-26T06:08:40;5.75;;;2.28;;
34896;SDS011;43407;51.828;-2.298;2023-02-26T06:11:05;5.07;;;2.35;;
34896;SDS011;43407;51.828;-2.298;2023-02-26T06:13:31;4.20;;;2.33;;
34896;SDS011;43407;51.828;-2.298;2023-02-26T06:15:56;6.65;;;2.22;;
34896;SDS011;43407;51.828;-2.298;2023-02-26T06:18:22;4.32;;;2.22;;
34896;SDS011;43407;51.828;-2.298;2023-02-26T06:20:48;4.85;;;2.22;;
34896;SDS011;43407;51.828;-2.298;2023-02-26T06:23:13;4.43;;;2.40;;
34896;SDS011;43407;51.828;-2.298;2023-02-26T06:25:39;4.82;;;2.13;;
34896;SDS011;43407;51.828;-2.298;2023-02-26T06:28:05;4.53;;;2.50;;
34896;SDS011;43407;51.828;-2.298;2023-02-26T06:30:31;5.97;;;2.72;;
34896;SDS011;43407;51.828;-2.298;2023-02-26T06:32:57;3.65;;;2.55;;
34896;SDS011;43407;51.828;-2.298;2023-02-26T06:35:22;6.70;;;2.63;;
34896;SDS011;43407;51.828;-2.298;2023-02-26T06:37:48;3.92;;;2.40;;
34896;SDS011;43407;51.828;-2.298;2023-02-26T06:40:14;4.38;;;2.10;;
34896;SDS011;43407;51.828;-2.298;2023-02-26T06:42:39;3.22;;;2.13;;
34896;SDS011;43407;51.828;-2.298;2023-02-26T06:45:05;2.75;;;2.03;;
34896;SDS011;43407;51.828;-2.298;2023-02-26T06:47:31;3.35;;;1.90;;
34896;SDS011;43407;51.828;-2.298;2023-02-26T06:49:57;5.22;;;2.72;;
34896;SDS011;43407;51.828;-2.298;2023-02-26T06:52:22;5.28;;;2.28;;
34896;SDS011;43407;51.828;-2.298;2023-02-26T06:54:48;6.45;;;2.50;;
34896;SDS011;43407;51.828;-2.298;2023-02-26T06:57:13;6.03;;;2.88;;
34896;SDS011;43407;51.828;-2.298;2023-02-26T06:59:39;3.95;;;2.20;;
34896;SDS011;43407;51.828;-2.298;2023-02-26T07:02:05;2.97;;;2.28;;
34896;SDS011;43407;51.828;-2.298;2023-02-26T07:04:30;4.55;;;2.60;;
34896;SDS011;43407;51.828;-2.298;2023-02-26T07:06:55;5.90;;;2.40;;
34896;SDS011;43407;51.828;-2.298;2023-02-26T07:09:21;6.70;;;3.25;;
34896;SDS011;43407;51.828;-2.298;2023-02-26T07:11:46;4.47;;;2.63;;
34896;SDS011;43407;51.828;-2.298;2023-02-26T07:14:12;4.95;;;2.70;;
34896;SDS011;43407;51.828;-2.298;2023-02-26T07:16:37;4.13;;;2.78;;
34896;SDS011;43407;51.828;-2.298;2023-02-26T07:19:03;5.30;;;2.58;;
34896;SDS011;43407;51.828;-2.298;2023-02-26T07:21:28;6.40;;;2.60;;
34896;SDS011;43407;51.828;-2.298;2023-02-26T07:23:54;4.45;;;2.92;;
34896;SDS011;43407;51.828;-2.298;2023-02-26T07:26:19;4.38;;;2.55;;
34896;SDS011;43407;51.828;-2.298;2023-02-26T07:28:45;4.68;;;2.85;;
34896;SDS011;43407;51.828;-2.298;2023-02-26T07:31:11;5.72;;;3.00;;
34896;SDS011;43407;51.828;-2.298;2023-02-26T07:33:36;7.10;;;2.80;;
34896;SDS011;43407;51.828;-2.298;2023-02-26T07:36:03;5.50;;;2.97;;
34896;SDS011;43407;51.828;-2.298;2023-02-26T07:38:29;6.30;;;2.80;;
34896;SDS011;43407;51.828;-2.298;2023-02-26T07:40:55;7.57;;;3.35;;
34896;SDS011;43407;51.828;-2.298;2023-02-26T07:43:21;5.55;;;2.90;;
34896;SDS011;43407;51.828;-2.298;2023-02-26T07:45:51;8.00;;;3.30;;
34896;SDS011;43407;51.828;-2.298;2023-02-26T07:48:18;3.97;;;2.13;;
34896;SDS011;43407;51.828;-2.298;2023-02-26T07:50:43;11.00;;;3.53;;
34896;SDS011;43407;51.828;-2.298;2023-02-26T07:53:09;4.25;;;2.92;;
34896;SDS011;43407;51.828;-2.298;2023-02-26T07:55:35;4.53;;;3.10;;
34896;SDS011;43407;51.828;-2.298;2023-02-26T07:58:00;6.40;;;3.45;;
34896;SDS011;43407;51.828;-2.298;2023-02-26T08:00:26;6.93;;;3.00;;
34896;SDS011;43407;51.828;-2.298;2023-02-26T08:02:51;6.25;;;2.95;;
34896;SDS011;43407;51.828;-2.298;2023-02-26T08:05:17;7.78;;;2.65;;
34896;SDS011;43407;51.828;-2.298;2023-02-26T08:07:42;7.03;;;3.00;;
34896;SDS011;43407;51.828;-2.298;2023-02-26T08:10:09;2.40;;;2.20;;
34896;SDS011;43407;51.828;-2.298;2023-02-26T08:12:35;12.88;;;3.33;;
34896;SDS011;43407;51.828;-2.298;2023-02-26T08:15:01;4.10;;;3.05;;
34896;SDS011;43407;51.828;-2.298;2023-02-26T08:17:26;5.82;;;2.97;;
34896;SDS011;43407;51.828;-2.298;2023-02-26T08:19:52;6.07;;;2.70;;
34896;SDS011;43407;51.828;-2.298;2023-02-26T08:22:18;7.03;;;3.10;;
34896;SDS011;43407;51.828;-2.298;2023-02-26T08:24:44;5.75;;;3.10;;
34896;SDS011;43407;51.828;-2.298;2023-02-26T08:27:09;6.90;;;3.28;;
34896;SDS011;43407;51.828;-2.298;2023-02-26T08:29:35;5.93;;;3.30;;
34896;SDS011;43407;51.828;-2.298;2023-02-26T08:32:00;4.65;;;2.78;;
34896;SDS011;43407;51.828;-2.298;2023-02-26T08:34:26;5.43;;;2.75;;
34896;SDS011;43407;51.828;-2.298;2023-02-26T08:36:51;5.78;;;3.53;;
34896;SDS011;43407;51.828;-2.298;2023-02-26T08:39:17;9.15;;;3.40;;
34896;SDS011;43407;51.828;-2.298;2023-02-26T08:41:42;7.03;;;3.40;;
34896;SDS011;43407;51.828;-2.298;2023-02-26T08:44:08;10.80;;;3.20;;
34896;SDS011;43407;51.828;-2.298;2023-02-26T08:46:33;6.47;;;3.42;;
34896;SDS011;43407;51.828;-2.298;2023-02-26T08:48:59;8.70;;;3.50;;
34896;SDS011;43407;51.828;-2.298;2023-02-26T08:51:24;7.88;;;3.33;;
34896;SDS011;43407;51.828;-2.298;2023-02-26T08:53:50;9.32;;;3.88;;
34896;SDS011;43407;51.828;-2.298;2023-02-26T08:56:15;6.13;;;3.65;;
34896;SDS011;43407;51.828;-2.298;2023-02-26T08:58:41;9.25;;;3.28;;
34896;SDS011;43407;51.828;-2.298;2023-02-26T09:01:07;6.95;;;3.10;;
34896;SDS011;43407;51.828;-2.298;2023-02-26T09:03:33;8.93;;;3.15;;
34896;SDS011;43407;51.828;-2.298;2023-02-26T09:05:59;11.50;;;3.58;;
34896;SDS011;43407;51.828;-2.298;2023-02-26T09:08:24;8.57;;;3.45;;
34896;SDS011;43407;51.828;-2.298;2023-02-26T09:10:50;8.38;;;3.88;;
34896;SDS011;43407;51.828;-2.298;2023-02-26T09:13:17;8.10;;;3.33;;
34896;SDS011;43407;51.828;-2.298;2023-02-26T09:15:42;8.60;;;3.60;;
34896;SDS011;43407;51.828;-2.298;2023-02-26T09:18:08;10.73;;;3.33;;
34896;SDS011;43407;51.828;-2.298;2023-02-26T09:20:39;9.18;;;2.95;;
34896;SDS011;43407;51.828;-2.298;2023-02-26T09:23:06;8.68;;;3.30;;
34896;SDS011;43407;51.828;-2.298;2023-02-26T09:25:32;7.88;;;3.15;;
34896;SDS011;43407;51.828;-2.298;2023-02-26T09:27:57;7.13;;;3.13;;
34896;SDS011;43407;51.828;-2.298;2023-02-26T09:30:23;9.95;;;3.28;;
34896;SDS011;43407;51.828;-2.298;2023-02-26T09:32:48;9.75;;;3.20;;
34896;SDS011;43407;51.828;-2.298;2023-02-26T09:35:14;5.68;;;2.83;;
34896;SDS011;43407;51.828;-2.298;2023-02-26T09:37:39;7.82;;;3.03;;
34896;SDS011;43407;51.828;-2.298;2023-02-26T09:40:05;4.25;;;2.40;;
34896;SDS011;43407;51.828;-2.298;2023-02-26T09:42:39;7.70;;;3.25;;
34896;SDS011;43407;51.828;-2.298;2023-02-26T09:45:25;10.45;;;3.00;;
34896;SDS011;43407;51.828;-2.298;2023-02-26T09:47:54;8.35;;;3.22;;
34896;SDS011;43407;51.828;-2.298;2023-02-26T09:50:24;10.73;;;2.58;;
34896;SDS011;43407;51.828;-2.298;2023-02-26T09:55:29;10.73;;;2.58;;
34896;SDS011;43407;51.828;-2.298;2023-02-26T09:58:01;7.57;;;3.22;;
34896;SDS011;43407;51.828;-2.298;2023-02-26T10:00:36;7.40;;;3.40;;
34896;SDS011;43407;51.828;-2.298;2023-02-26T10:08:40;10.93;;;2.90;;
34896;SDS011;43407;51.828;-2.298;2023-02-26T10:14:14;9.02;;;2.72;;
34896;SDS011;43407;51.828;-2.298;2023-02-26T10:16:45;10.30;;;3.05;;
34896;SDS011;43407;51.828;-2.298;2023-02-26T10:19:13;6.75;;;2.63;;
34896;SDS011;43407;51.828;-2.298;2023-02-26T10:21:55;9.38;;;3.35;;
34896;SDS011;43407;51.828;-2.298;2023-02-26T10:24:37;10.32;;;2.92;;
34896;SDS011;43407;51.828;-2.298;2023-02-26T10:27:10;8.80;;;3.22;;
34896;SDS011;43407;51.828;-2.298;2023-02-26T10:29:47;9.93;;;2.75;;
34896;SDS011;43407;51.828;-2.298;2023-02-26T10:35:02;12.15;;;3.05;;
34896;SDS011;43407;51.828;-2.298;2023-02-26T10:43:14;8.75;;;2.70;;
34896;SDS011;43407;51.828;-2.298;2023-02-26T10:51:34;6.30;;;2.28;;
34896;SDS011;43407;51.828;-2.298;2023-02-26T10:56:55;6.35;;;2.00;;
34896;SDS011;43407;51.828;-2.298;2023-02-26T10:59:21;11.30;;;2.50;;
34896;SDS011;43407;51.828;-2.298;2023-02-26T11:01:47;10.20;;;1.90;;
34896;SDS011;43407;51.828;-2.298;2023-02-26T11:04:17;7.03;;;2.47;;
34896;SDS011;43407;51.828;-2.298;2023-02-26T11:06:48;9.82;;;2.70;;
34896;SDS011;43407;51.828;-2.298;2023-02-26T11:09:19;6.60;;;1.98;;
34896;SDS011;43407;51.828;-2.298;2023-02-26T11:11:55;12.77;;;2.40;;
34896;SDS011;43407;51.828;-2.298;2023-02-26T11:14:29;8.05;;;1.90;;
34896;SDS011;43407;51.828;-2.298;2023-02-26T11:16:57;9.73;;;2.60;;
34896;SDS011;43407;51.828;-2.298;2023-02-26T11:19:28;6.63;;;2.20;;
34896;SDS011;43407;51.828;-2.298;2023-02-26T11:21:56;9.07;;;2.17;;
34896;SDS011;43407;51.828;-2.298;2023-02-26T11:26:58;11.80;;;2.40;;
34896;SDS011;43407;51.828;-2.298;2023-02-26T11:29:31;6.93;;;2.28;;
34896;SDS011;43407;51.828;-2.298;2023-02-26T11:32:03;6.63;;;1.90;;
34896;SDS011;43407;51.828;-2.298;2023-02-26T11:34:29;6.20;;;1.70;;
34896;SDS011;43407;51.828;-2.298;2023-02-26T11:36:56;8.68;;;2.15;;
34896;SDS011;43407;51.828;-2.298;2023-02-26T11:39:28;6.82;;;1.98;;
34896;SDS011;43407;51.828;-2.298;2023-02-26T11:41:58;4.28;;;1.75;;
34896;SDS011;43407;51.828;-2.298;2023-02-26T11:44:46;5.68;;;1.55;;
34896;SDS011;43407;51.828;-2.298;2023-02-26T11:47:14;5.05;;;1.80;;
34896;SDS011;43407;51.828;-2.298;2023-02-26T11:49:43;3.95;;;1.50;;
34896;SDS011;43407;51.828;-2.298;2023-02-26T11:54:41;8.60;;;1.75;;
34896;SDS011;43407;51.828;-2.298;2023-02-26T11:57:16;7.82;;;1.90;;
34896;SDS011;43407;51.828;-2.298;2023-02-26T11:59:48;5.47;;;1.42;;
34896;SDS011;43407;51.828;-2.298;2023-02-26T12:02:20;4.78;;;1.48;;
34896;SDS011;43407;51.828;-2.298;2023-02-26T12:04:50;7.68;;;1.65;;
34896;SDS011;43407;51.828;-2.298;2023-02-26T12:07:17;6.80;;;1.60;;
34896;SDS011;43407;51.828;-2.298;2023-02-26T12:09:44;9.10;;;1.73;;
34896;SDS011;43407;51.828;-2.298;2023-02-26T12:15:08;5.07;;;1.60;;
34896;SDS011;43407;51.828;-2.298;2023-02-26T12:20:21;4.72;;;1.67;;
34896;SDS011;43407;51.828;-2.298;2023-02-26T12:42:40;4.18;;;1.35;;
34896;SDS011;43407;51.828;-2.298;2023-02-26T12:50:50;2.95;;;1.35;;
34896;SDS011;43407;51.828;-2.298;2023-02-26T13:06:43;4.53;;;1.20;;
34896;SDS011;43407;51.828;-2.298;2023-02-26T13:15:22;5.90;;;1.50;;
34896;SDS011;43407;51.828;-2.298;2023-02-26T13:20:55;5.07;;;1.70;;
34896;SDS011;43407;51.828;-2.298;2023-02-26T13:23:25;6.15;;;1.40;;
34896;SDS011;43407;51.828;-2.298;2023-02-26T13:26:01;4.22;;;1.52;;
34896;SDS011;43407;51.828;-2.298;2023-02-26T13:31:22;6.22;;;1.40;;
34896;SDS011;43407;51.828;-2.298;2023-02-26T13:33:51;5.65;;;1.40;;
34896;SDS011;43407;51.828;-2.298;2023-02-26T13:36:17;4.03;;;1.40;;
34896;SDS011;43407;51.828;-2.298;2023-02-26T13:54:48;4.05;;;1.40;;
34896;SDS011;43407;51.828;-2.298;2023-02-26T13:57:26;2.70;;;1.10;;
34896;SDS011;43407;51.828;-2.298;2023-02-26T14:05:30;2.05;;;1.23;;
34896;SDS011;43407;51.828;-2.298;2023-02-26T14:13:18;3.25;;;1.27;;
34896;SDS011;43407;51.828;-2.298;2023-02-26T14:16:00;4.00;;;1.23;;
34896;SDS011;43407;51.828;-2.298;2023-02-26T14:24:04;5.10;;;1.08;;
34896;SDS011;43407;51.828;-2.298;2023-02-26T14:26:32;4.95;;;1.30;;
34896;SDS011;43407;51.828;-2.298;2023-02-26T14:31:44;5.55;;;1.63;;
34896;SDS011;43407;51.828;-2.298;2023-02-26T14:34:20;6.05;;;2.08;;
34896;SDS011;43407;51.828;-2.298;2023-02-26T14:36:49;5.97;;;1.85;;
34896;SDS011;43407;51.828;-2.298;2023-02-26T14:39:39;7.43;;;2.03;;
34896;SDS011;43407;51.828;-2.298;2023-02-26T14:42:29;4.07;;;1.95;;
34896;SDS011;43407;51.828;-2.298;2023-02-26T14:45:08;4.22;;;1.63;;
34896;SDS011;43407;51.828;-2.298;2023-02-26T14:48:00;5.72;;;1.58;;
34896;SDS011;43407;51.828;-2.298;2023-02-26T14:58:50;6.28;;;1.55;;
34896;SDS011;43407;51.828;-2.298;2023-02-26T15:15:25;5.88;;;1.95;;
34896;SDS011;43407;51.828;-2.298;2023-02-26T15:25:29;1.92;;;1.10;;
34896;SDS011;43407;51.828;-2.298;2023-02-26T15:28:03;2.08;;;1.08;;
34896;SDS011;43407;51.828;-2.298;2023-02-26T15:30:30;3.30;;;1.55;;
34896;SDS011;43407;51.828;-2.298;2023-02-26T15:32:57;4.15;;;1.00;;
34896;SDS011;43407;51.828;-2.298;2023-02-26T15:35:25;5.25;;;1.20;;
34896;SDS011;43407;51.828;-2.298;2023-02-26T15:37:53;3.28;;;1.30;;
34896;SDS011;43407;51.828;-2.298;2023-02-26T15:40:24;2.47;;;1.13;;
34896;SDS011;43407;51.828;-2.298;2023-02-26T15:42:54;5.57;;;1.10;;
34896;SDS011;43407;51.828;-2.298;2023-02-26T15:45:22;3.47;;;0.93;;
34896;SDS011;43407;51.828;-2.298;2023-02-26T15:47:53;3.78;;;1.20;;
34896;SDS011;43407;51.828;-2.298;2023-02-26T15:50:22;2.75;;;1.00;;
34896;SDS011;43407;51.828;-2.298;2023-02-26T15:52:54;3.22;;;1.05;;
34896;SDS011;43407;51.828;-2.298;2023-02-26T15:55:22;5.40;;;0.90;;
34896;SDS011;43407;51.828;-2.298;2023-02-26T15:57:48;3.00;;;1.30;;
34896;SDS011;43407;51.828;-2.298;2023-02-26T16:00:15;5.20;;;1.23;;
34896;SDS011;43407;51.828;-2.298;2023-02-26T16:02:47;3.25;;;1.10;;
34896;SDS011;43407;51.828;-2.298;2023-02-26T16:05:13;3.33;;;0.90;;
34896;SDS011;43407;51.828;-2.298;2023-02-26T16:07:40;3.28;;;0.95;;
34896;SDS011;43407;51.828;-2.298;2023-02-26T16:10:28;2.88;;;1.33;;
34896;SDS011;43407;51.828;-2.298;2023-02-26T16:13:03;2.08;;;0.98;;
34896;SDS011;43407;51.828;-2.298;2023-02-26T16:15:31;3.08;;;1.10;;
34896;SDS011;43407;51.828;-2.298;2023-02-26T16:18:00;2.47;;;0.90;;
34896;SDS011;43407;51.828;-2.298;2023-02-26T16:20:36;4.72;;;1.30;;
34896;SDS011;43407;51.828;-2.298;2023-02-26T16:23:37;5.38;;;1.30;;
34896;SDS011;43407;51.828;-2.298;2023-02-26T16:28:38;3.92;;;1.38;;
34896;SDS011;43407;51.828;-2.298;2023-02-26T16:31:16;3.53;;;1.30;;
34896;SDS011;43407;51.828;-2.298;2023-02-26T16:33:48;4.82;;;1.60;;
34896;SDS011;43407;51.828;-2.298;2023-02-26T16:36:18;2.83;;;1.20;;
34896;SDS011;43407;51.828;-2.298;2023-02-26T16:38:49;4.22;;;1.40;;
34896;SDS011;43407;51.828;-2.298;2023-02-26T16:41:22;5.70;;;1.60;;
34896;SDS011;43407;51.828;-2.298;2023-02-26T16:43:50;1.90;;;1.48;;
34896;SDS011;43407;51.828;-2.298;2023-02-26T16:46:36;2.90;;;1.00;;
34896;SDS011;43407;51.828;-2.298;2023-02-26T16:49:10;3.47;;;1.20;;
34896;SDS011;43407;51.828;-2.298;2023-02-26T16:51:37;2.15;;;1.20;;
34896;SDS011;43407;51.828;-2.298;2023-02-26T16:54:05;3.33;;;1.17;;
34896;SDS011;43407;51.828;-2.298;2023-02-26T16:56:34;3.38;;;1.60;;
34896;SDS011;43407;51.828;-2.298;2023-02-26T16:59:04;3.42;;;1.80;;
34896;SDS011;43407;51.828;-2.298;2023-02-26T17:01:46;3.55;;;1.83;;
34896;SDS011;43407;51.828;-2.298;2023-02-26T17:04:13;2.75;;;1.52;;
34896;SDS011;43407;51.828;-2.298;2023-02-26T17:06:40;4.55;;;1.42;;
34896;SDS011;43407;51.828;-2.298;2023-02-26T17:09:06;2.97;;;1.30;;
34896;SDS011;43407;51.828;-2.298;2023-02-26T17:11:36;4.20;;;1.38;;
34896;SDS011;43407;51.828;-2.298;2023-02-26T17:16:45;4.07;;;1.27;;
34896;SDS011;43407;51.828;-2.298;2023-02-26T17:19:11;2.40;;;0.93;;
34896;SDS011;43407;51.828;-2.298;2023-02-26T17:21:44;4.05;;;1.08;;
34896;SDS011;43407;51.828;-2.298;2023-02-26T17:24:14;1.83;;;1.00;;
34896;SDS011;43407;51.828;-2.298;2023-02-26T17:26:45;2.42;;;1.20;;
34896;SDS011;43407;51.828;-2.298;2023-02-26T17:29:19;2.15;;;1.02;;
34896;SDS011;43407;51.828;-2.298;2023-02-26T17:31:48;2.55;;;1.08;;
34896;SDS011;43407;51.828;-2.298;2023-02-26T17:34:14;2.33;;;1.05;;
34896;SDS011;43407;51.828;-2.298;2023-02-26T17:36:39;3.28;;;1.60;;
34896;SDS011;43407;51.828;-2.298;2023-02-26T17:39:05;3.83;;;1.02;;
34896;SDS011;43407;51.828;-2.298;2023-02-26T17:41:32;2.95;;;1.25;;
34896;SDS011;43407;51.828;-2.298;2023-02-26T17:43:58;2.70;;;1.17;;
34896;SDS011;43407;51.828;-2.298;2023-02-26T17:46:24;2.28;;;1.13;;
34896;SDS011;43407;51.828;-2.298;2023-02-26T17:48:50;1.27;;;0.90;;
34896;SDS011;43407;51.828;-2.298;2023-02-26T17:51:15;3.72;;;1.15;;
34896;SDS011;43407;51.828;-2.298;2023-02-26T17:53:41;2.95;;;1.33;;
34896;SDS011;43407;51.828;-2.298;2023-02-26T17:56:13;1.40;;;1.02;;
34896;SDS011;43407;51.828;-2.298;2023-02-26T17:58:41;2.97;;;1.40;;
34896;SDS011;43407;51.828;-2.298;2023-02-26T18:01:08;2.33;;;1.05;;
34896;SDS011;43407;51.828;-2.298;2023-02-26T18:03:34;2.92;;;1.20;;
34896;SDS011;43407;51.828;-2.298;2023-02-26T18:05:59;2.00;;;1.27;;
34896;SDS011;43407;51.828;-2.298;2023-02-26T18:08:32;2.80;;;1.10;;